createdAt,value
2023-05-25T00:00:33.123Z,12.80
2023-05-25T00:01:36.129Z,14.70
2023-05-25T00:02:38.693Z,11.55
2023-05-25T00:03:41.455Z,15.18
2023-05-25T00:04:43.831Z,15.00
2023-05-25T00:05:46.595Z,13.70
2023-05-25T00:06:49.427Z,13.64
2023-05-25T00:07:51.623Z,14.00
2023-05-25T00:08:57.389Z,12.20
2023-05-25T00:09:59.726Z,11.90
2023-05-25T00:11:01.939Z,12.70
2023-05-25T00:12:04.358Z,12.00
2023-05-25T00:13:06.476Z,13.20
2023-05-25T00:14:09.226Z,16.00
2023-05-25T00:15:12.046Z,13.60
2023-05-25T00:16:15.808Z,12.00
2023-05-25T00:17:18.831Z,12.50
2023-05-25T00:18:22.083Z,13.50
2023-05-25T00:19:24.972Z,14.73
2023-05-25T00:20:27.348Z,13.82
2023-05-25T00:21:29.630Z,13.50
2023-05-25T00:22:31.901Z,10.40
2023-05-25T00:23:34.510Z,13.80
2023-05-25T00:24:37.274Z,13.10
2023-05-25T00:25:39.456Z,12.27
2023-05-25T00:26:41.967Z,13.10
2023-05-25T00:27:46.157Z,12.50
2023-05-25T00:28:48.581Z,13.30
2023-05-25T00:29:51.349Z,12.45
2023-05-25T00:30:53.773Z,11.80
2023-05-25T00:31:57.306Z,13.50
2023-05-25T00:32:59.647Z,11.73
2023-05-25T00:34:02.105Z,12.70
2023-05-25T00:35:04.667Z,11.70
2023-05-25T00:36:08.194Z,13.90
2023-05-25T00:37:10.560Z,10.70
2023-05-25T00:38:13.791Z,11.50
2023-05-25T00:39:18.463Z,10.73
2023-05-25T00:40:21.205Z,11.40
2023-05-25T00:41:25.176Z,10.55
2023-05-25T00:42:28.380Z,10.40
2023-05-25T00:43:30.829Z,10.30
2023-05-25T00:44:34.296Z,10.10
2023-05-25T00:45:36.597Z,11.10
2023-05-25T00:46:39.774Z,10.40
2023-05-25T00:47:43.095Z,11.50
2023-05-25T00:48:45.607Z,9.10
2023-05-25T00:49:47.715Z,10.30
2023-05-25T00:50:53.795Z,12.40
2023-05-25T00:51:57.828Z,10.70
2023-05-25T00:53:00.265Z,5.00
2023-05-25T00:54:03.552Z,9.50
2023-05-25T00:55:08.800Z,10.20
2023-05-25T00:56:20.135Z,8.10
2023-05-25T00:57:23.559Z,9.40
2023-05-25T00:58:27.549Z,10.80
2023-05-25T00:59:35.737Z,10.80
2023-05-25T01:00:41.039Z,11.20
2023-05-25T01:01:45.249Z,11.30
2023-05-25T01:02:48.962Z,9.80
2023-05-25T01:03:51.977Z,11.00
2023-05-25T01:04:56.830Z,13.80
2023-05-25T01:05:59.752Z,12.00
2023-05-25T01:07:06.527Z,8.91
2023-05-25T01:08:10.059Z,10.00
2023-05-25T01:09:13.307Z,11.40
2023-05-25T01:10:17.773Z,10.20
2023-05-25T01:11:24.386Z,11.60
2023-05-25T01:12:28.065Z,11.20
2023-05-25T01:13:31.993Z,12.10
2023-05-25T01:14:34.910Z,12.80
2023-05-25T01:15:38.229Z,13.60
2023-05-25T01:16:41.134Z,17.70
2023-05-25T01:17:43.874Z,18.30
2023-05-25T01:18:46.296Z,22.36
2023-05-25T01:20:01.573Z,24.10
2023-05-25T01:21:05.603Z,24.00
2023-05-25T01:22:14.665Z,28.40
2023-05-25T01:23:18.240Z,28.60
2023-05-25T01:24:36.649Z,25.50
2023-05-25T01:25:42.711Z,27.10
2023-05-25T01:26:55.045Z,28.50
2023-05-25T01:28:04.214Z,24.10
2023-05-25T01:29:07.914Z,25.40
2023-05-25T01:30:13.782Z,26.30
2023-05-25T01:31:18.527Z,23.00
2023-05-25T01:32:21.289Z,25.10
2023-05-25T01:33:23.912Z,25.40
2023-05-25T01:34:26.566Z,24.40
2023-05-25T01:35:29.394Z,17.80
2023-05-25T01:36:32.353Z,10.73
2023-05-25T01:37:39.221Z,21.73
2023-05-25T01:38:41.552Z,20.70
2023-05-25T01:39:45.730Z,21.60
2023-05-25T01:40:47.919Z,18.70
2023-05-25T01:41:50.153Z,18.56
2023-05-25T01:42:52.591Z,18.70
2023-05-25T01:43:54.795Z,17.20
2023-05-25T01:44:58.603Z,16.30
2023-05-25T01:47:51.296Z,14.60
2023-05-25T01:49:03.561Z,15.60
2023-05-25T01:51:39.369Z,16.20
2023-05-25T01:52:48.369Z,15.20
2023-05-25T01:53:57.134Z,12.30
2023-05-25T01:55:08.267Z,13.70
2023-05-25T01:56:14.175Z,14.60
2023-05-25T01:57:18.225Z,14.60
2023-05-25T01:58:22.637Z,13.20
2023-05-25T01:59:25.861Z,12.70
2023-05-25T02:00:29.529Z,13.30
2023-05-25T02:01:33.507Z,14.10
2023-05-25T02:02:36.479Z,13.00
2023-05-25T02:03:41.621Z,11.50
2023-05-25T02:04:45.258Z,11.30
2023-05-25T02:05:47.720Z,10.00
2023-05-25T02:06:51.424Z,11.60
2023-05-25T02:07:53.930Z,13.70
2023-05-25T02:08:56.243Z,13.00
2023-05-25T02:10:00.730Z,12.40
2023-05-25T02:11:03.137Z,12.50
2023-05-25T02:12:06.110Z,11.70
2023-05-25T02:13:09.039Z,10.30
2023-05-25T02:14:11.655Z,13.50
2023-05-25T02:15:15.580Z,12.30
2023-05-25T02:16:18.294Z,13.30
2023-05-25T02:17:20.635Z,13.10
2023-05-25T02:18:23.290Z,13.60
2023-05-25T02:19:26.103Z,12.90
2023-05-25T02:20:28.421Z,11.60
2023-05-25T02:21:30.709Z,13.70
2023-05-25T02:22:33.351Z,15.00
2023-05-25T02:23:35.774Z,13.50
2023-05-25T02:24:38.560Z,12.09
2023-05-25T02:25:40.653Z,15.70
2023-05-25T02:26:43.235Z,17.60
2023-05-25T02:27:45.540Z,15.50
2023-05-25T02:28:48.245Z,14.00
2023-05-25T02:29:52.404Z,15.70
2023-05-25T02:30:54.651Z,13.50
2023-05-25T02:31:57.518Z,14.90
2023-05-25T02:33:00.047Z,14.55
2023-05-25T02:34:02.482Z,11.80
2023-05-25T02:35:05.243Z,13.10
2023-05-25T02:36:08.899Z,11.00
2023-05-25T02:37:11.349Z,10.70
2023-05-25T02:38:13.859Z,11.00
2023-05-25T02:39:16.230Z,11.40
2023-05-25T02:40:18.600Z,13.20
2023-05-25T02:41:21.161Z,10.90
2023-05-25T02:42:23.504Z,13.00
2023-05-25T02:43:25.601Z,11.40
2023-05-25T02:44:27.919Z,10.80
2023-05-25T02:45:30.554Z,10.90
2023-05-25T02:46:34.021Z,11.10
2023-05-25T02:47:36.751Z,10.30
2023-05-25T02:48:39.294Z,11.30
2023-05-25T02:49:42.344Z,10.00
2023-05-25T02:50:45.452Z,12.30
2023-05-25T02:51:49.277Z,12.20
2023-05-25T02:52:52.095Z,13.50
2023-05-25T02:53:54.401Z,13.80
2023-05-25T02:54:56.587Z,13.20
2023-05-25T02:56:01.268Z,13.60
2023-05-25T02:57:05.953Z,10.80
2023-05-25T02:58:08.715Z,10.82
2023-05-25T02:59:29.168Z,10.50
2023-05-25T03:00:32.957Z,12.00
2023-05-25T03:01:35.328Z,10.45
2023-05-25T03:02:38.615Z,10.30
2023-05-25T03:03:41.006Z,10.73
2023-05-25T03:04:44.670Z,11.70
2023-05-25T03:05:48.280Z,11.60
2023-05-25T03:06:51.112Z,10.90
2023-05-25T03:07:54.486Z,11.90
2023-05-25T03:08:57.463Z,12.20
2023-05-25T03:10:00.854Z,10.80
2023-05-25T03:11:03.447Z,13.30
2023-05-25T03:12:06.658Z,12.10
2023-05-25T03:13:28.636Z,14.60
2023-05-25T03:14:31.989Z,9.30
2023-05-25T03:15:36.262Z,13.40
2023-05-25T03:16:40.183Z,11.60
2023-05-25T03:17:43.202Z,9.40
2023-05-25T03:18:46.116Z,12.60
2023-05-25T03:19:48.482Z,10.60
2023-05-25T03:20:50.958Z,10.30
2023-05-25T03:21:53.695Z,8.60
2023-05-25T03:22:55.984Z,10.50
2023-05-25T03:23:58.464Z,10.40
2023-05-25T03:25:00.944Z,11.00
2023-05-25T03:26:03.380Z,11.70
2023-05-25T03:27:06.439Z,10.00
2023-05-25T03:28:08.850Z,9.09
2023-05-25T03:29:11.967Z,10.30
2023-05-25T03:30:14.860Z,9.60
2023-05-25T03:31:18.850Z,10.30
2023-05-25T03:32:21.604Z,9.70
2023-05-25T03:33:25.354Z,10.91
2023-05-25T03:34:29.314Z,12.70
2023-05-25T03:35:31.715Z,10.80
2023-05-25T03:36:34.188Z,10.80
2023-05-25T03:37:36.728Z,11.20
2023-05-25T03:38:41.786Z,12.10
2023-05-25T03:39:44.097Z,8.30
2023-05-25T03:40:47.011Z,10.27
2023-05-25T03:41:49.548Z,12.30
2023-05-25T03:42:53.824Z,12.40
2023-05-25T03:43:57.229Z,12.55
2023-05-25T03:44:59.625Z,10.90
2023-05-25T03:46:02.056Z,10.40
2023-05-25T03:47:04.766Z,9.30
2023-05-25T03:48:07.234Z,9.30
2023-05-25T03:49:09.738Z,9.90
2023-05-25T03:50:13.344Z,7.50
2023-05-25T03:51:17.466Z,8.30
2023-05-25T03:52:21.327Z,9.70
2023-05-25T03:53:23.792Z,8.90
2023-05-25T03:54:26.455Z,9.80
2023-05-25T03:55:28.846Z,11.10
2023-05-25T03:56:31.666Z,10.30
2023-05-25T03:57:34.206Z,10.80
2023-05-25T03:58:37.771Z,9.10
2023-05-25T03:59:40.511Z,9.50
2023-05-25T04:00:43.308Z,9.50
2023-05-25T04:01:45.680Z,9.50
2023-05-25T04:02:48.495Z,9.30
2023-05-25T04:03:50.896Z,10.00
2023-05-25T04:04:53.781Z,9.00
2023-05-25T04:05:56.336Z,10.90
2023-05-25T04:07:00.260Z,9.90
2023-05-25T04:08:02.862Z,10.10
2023-05-25T04:09:05.308Z,11.00
2023-05-25T04:10:10.198Z,13.10
2023-05-25T04:11:14.516Z,11.10
2023-05-25T04:12:16.924Z,8.60
2023-05-25T04:13:20.075Z,8.20
2023-05-25T04:14:26.375Z,8.64
2023-05-25T04:15:29.246Z,8.90
2023-05-25T04:16:36.928Z,10.20
2023-05-25T04:17:45.299Z,11.55
2023-05-25T04:18:48.116Z,9.10
2023-05-25T04:19:52.337Z,9.40
2023-05-25T04:20:55.817Z,9.10
2023-05-25T04:21:58.410Z,10.18
2023-05-25T04:23:02.649Z,9.40
2023-05-25T04:24:05.883Z,9.00
2023-05-25T04:25:10.170Z,8.70
2023-05-25T04:26:13.289Z,9.70
2023-05-25T04:27:17.142Z,10.00
2023-05-25T04:28:20.172Z,10.00
2023-05-25T04:29:30.101Z,11.20
2023-05-25T04:31:47.563Z,10.60
2023-05-25T04:32:54.699Z,10.70
2023-05-25T04:33:59.368Z,8.30
2023-05-25T04:35:06.980Z,10.90
2023-05-25T04:36:11.990Z,9.70
2023-05-25T04:37:15.139Z,8.70
2023-05-25T04:38:18.510Z,8.40
2023-05-25T04:39:20.610Z,7.60
2023-05-25T04:40:24.682Z,9.60
2023-05-25T04:41:28.925Z,7.40
2023-05-25T04:42:33.102Z,9.20
2023-05-25T04:43:35.428Z,8.30
2023-05-25T04:44:37.631Z,8.10
2023-05-25T04:45:41.145Z,8.18
2023-05-25T04:46:44.275Z,8.60
2023-05-25T04:47:49.581Z,7.00
2023-05-25T04:48:52.408Z,8.40
2023-05-25T04:49:55.052Z,7.40
2023-05-25T04:50:59.289Z,8.60
2023-05-25T04:52:01.561Z,8.10
2023-05-25T04:53:06.330Z,12.00
2023-05-25T04:54:08.709Z,6.40
2023-05-25T04:55:11.167Z,10.40
2023-05-25T04:56:15.652Z,9.30
2023-05-25T04:57:17.994Z,8.10
2023-05-25T04:58:20.934Z,10.40
2023-05-25T04:59:23.400Z,9.80
2023-05-25T05:00:26.315Z,9.50
2023-05-25T05:01:31.489Z,8.30
2023-05-25T05:02:35.750Z,7.20
2023-05-25T05:03:38.148Z,9.10
2023-05-25T05:04:41.010Z,10.00
2023-05-25T05:05:44.489Z,9.27
2023-05-25T05:06:48.985Z,7.70
2023-05-25T05:07:55.982Z,9.80
2023-05-25T05:08:58.178Z,8.20
2023-05-25T05:10:00.430Z,7.60
2023-05-25T05:11:04.357Z,7.40
2023-05-25T05:12:08.956Z,8.70
2023-05-25T05:13:27.527Z,8.60
2023-05-25T05:14:30.276Z,7.10
2023-05-25T05:15:32.608Z,11.60
2023-05-25T05:16:36.088Z,8.60
2023-05-25T05:17:39.947Z,11.90
2023-05-25T05:18:43.189Z,9.50
2023-05-25T05:19:45.577Z,9.40
2023-05-25T05:20:48.219Z,9.50
2023-05-25T05:21:52.176Z,9.60
2023-05-25T05:22:56.996Z,9.40
2023-05-25T05:23:59.356Z,9.00
2023-05-25T05:25:01.623Z,9.30
2023-05-25T05:26:05.552Z,9.30
2023-05-25T05:27:08.410Z,7.91
2023-05-25T05:28:12.612Z,8.70
2023-05-25T05:29:16.423Z,7.20
2023-05-25T05:30:18.798Z,7.70
2023-05-25T05:31:22.088Z,9.50
2023-05-25T05:32:24.567Z,8.80
2023-05-25T05:33:27.026Z,8.90
2023-05-25T05:34:29.823Z,9.91
2023-05-25T05:35:32.815Z,8.60
2023-05-25T05:36:57.466Z,7.00
2023-05-25T05:37:52.255Z,8.70
2023-05-25T05:38:54.669Z,8.20
2023-05-25T05:39:57.435Z,9.60
2023-05-25T05:40:59.894Z,8.82
2023-05-25T05:42:03.599Z,10.40
2023-05-25T05:43:05.994Z,8.60
2023-05-25T05:44:09.652Z,8.00
2023-05-25T05:45:11.942Z,7.70
2023-05-25T05:46:15.394Z,8.80
2023-05-25T05:47:18.792Z,7.70
2023-05-25T05:48:21.208Z,9.10
2023-05-25T05:49:23.594Z,7.90
2023-05-25T05:50:26.685Z,8.00
2023-05-25T05:51:29.149Z,6.50
2023-05-25T05:52:31.467Z,7.00
2023-05-25T05:53:34.163Z,8.30
2023-05-25T05:54:37.245Z,9.00
2023-05-25T05:55:42.614Z,7.30
2023-05-25T05:56:45.222Z,8.80
2023-05-25T05:57:48.292Z,6.60
2023-05-25T05:58:50.628Z,6.20
2023-05-25T05:59:53.400Z,7.50
2023-05-25T06:00:56.755Z,5.80
2023-05-25T06:03:10.701Z,7.20
2023-05-25T06:04:14.861Z,6.20
2023-05-25T06:05:19.009Z,7.70
2023-05-25T06:06:22.616Z,6.80
2023-05-25T06:07:24.958Z,5.80
2023-05-25T06:08:27.804Z,7.00
2023-05-25T06:09:30.228Z,7.50
2023-05-25T06:10:34.490Z,6.60
2023-05-25T06:11:37.839Z,6.20
2023-05-25T06:12:40.965Z,6.80
2023-05-25T06:13:46.677Z,6.70
2023-05-25T06:14:50.656Z,7.10
2023-05-25T06:15:53.940Z,6.00
2023-05-25T06:16:58.366Z,6.70
2023-05-25T06:18:01.478Z,6.50
2023-05-25T06:19:05.311Z,6.45
2023-05-25T06:20:10.282Z,7.00
2023-05-25T06:21:13.182Z,6.50
2023-05-25T06:22:16.602Z,5.70
2023-05-25T06:23:22.077Z,5.80
2023-05-25T06:24:24.613Z,6.50
2023-05-25T06:25:27.867Z,5.27
2023-05-25T06:26:30.967Z,5.80
2023-05-25T06:27:34.194Z,6.18
2023-05-25T06:28:37.066Z,7.00
2023-05-25T06:29:40.246Z,7.20
2023-05-25T06:30:46.051Z,6.60
2023-05-25T06:31:48.533Z,5.60
2023-05-25T06:32:51.852Z,7.40
2023-05-25T06:33:54.905Z,6.10
2023-05-25T06:34:58.079Z,7.60
2023-05-25T06:36:00.883Z,7.40
2023-05-25T06:37:03.198Z,7.80
2023-05-25T06:39:15.935Z,6.90
2023-05-25T06:40:19.749Z,6.50
2023-05-25T06:41:24.955Z,6.80
2023-05-25T06:42:28.904Z,8.80
2023-05-25T06:43:32.290Z,8.20
2023-05-25T06:45:56.290Z,7.70
2023-05-25T06:46:58.834Z,8.10
2023-05-25T06:48:01.791Z,6.30
2023-05-25T06:49:04.650Z,7.50
2023-05-25T06:50:08.714Z,7.90
2023-05-25T06:51:13.117Z,9.10
2023-05-25T06:52:15.733Z,8.30
2023-05-25T06:53:18.309Z,8.20
2023-05-25T06:54:20.792Z,7.20
2023-05-25T06:55:23.284Z,6.10
2023-05-25T06:56:25.736Z,6.90
2023-05-25T06:57:28.018Z,8.40
2023-05-25T06:59:39.532Z,8.30
2023-05-25T07:00:42.580Z,8.10
2023-05-25T07:01:47.490Z,8.30
2023-05-25T07:02:49.877Z,7.90
2023-05-25T07:03:53.082Z,5.90
2023-05-25T07:04:56.466Z,8.60
2023-05-25T07:06:02.157Z,8.50
2023-05-25T07:07:05.748Z,8.60
2023-05-25T07:08:09.768Z,9.00
2023-05-25T07:09:13.357Z,8.60
2023-05-25T07:10:22.478Z,10.40
2023-05-25T07:11:29.571Z,8.60
2023-05-25T07:12:33.076Z,5.30
2023-05-25T07:13:36.021Z,8.10
2023-05-25T07:14:40.799Z,8.20
2023-05-25T07:15:43.362Z,7.64
2023-05-25T07:16:50.128Z,9.40
2023-05-25T07:17:57.857Z,8.00
2023-05-25T07:19:00.553Z,7.60
2023-05-25T07:20:04.336Z,9.00
2023-05-25T07:21:22.160Z,8.70
2023-05-25T07:22:25.393Z,9.10
2023-05-25T07:23:29.521Z,10.60
2023-05-25T07:24:34.430Z,8.20
2023-05-25T07:25:42.443Z,9.50
2023-05-25T07:26:45.042Z,8.90
2023-05-25T07:27:48.780Z,7.80
2023-05-25T07:28:51.145Z,9.50
2023-05-25T07:29:53.406Z,9.60
2023-05-25T07:30:57.892Z,9.20
2023-05-25T07:32:00.826Z,9.90
2023-05-25T07:33:03.321Z,9.80
2023-05-25T07:34:05.626Z,11.10
2023-05-25T07:35:08.872Z,9.80
2023-05-25T07:36:12.025Z,10.10
2023-05-25T07:37:15.877Z,8.70
2023-05-25T07:38:25.451Z,9.90
2023-05-25T07:39:31.725Z,9.10
2023-05-25T07:40:34.099Z,9.30
2023-05-25T07:41:37.259Z,10.80
2023-05-25T07:42:40.630Z,9.60
2023-05-25T07:43:42.932Z,9.90
2023-05-25T07:44:45.286Z,10.60
2023-05-25T07:45:47.726Z,9.90
2023-05-25T07:46:52.048Z,10.60
2023-05-25T07:47:54.475Z,8.10
2023-05-25T07:48:56.834Z,10.50
2023-05-25T07:50:00.190Z,9.70
2023-05-25T07:51:02.679Z,9.80
2023-05-25T07:52:04.875Z,7.20
2023-05-25T07:54:16.316Z,11.20
2023-05-25T07:55:19.090Z,11.30
2023-05-25T07:56:22.850Z,12.00
2023-05-25T07:57:25.224Z,10.50
2023-05-25T07:58:27.442Z,11.60
2023-05-25T07:59:30.784Z,9.10
2023-05-25T08:00:33.653Z,11.90
2023-05-25T08:01:35.921Z,8.80
2023-05-25T08:02:40.360Z,10.90
2023-05-25T08:03:50.298Z,12.30
2023-05-25T08:06:07.526Z,13.40
2023-05-25T08:07:14.940Z,14.50
2023-05-25T08:08:21.904Z,15.30
2023-05-25T08:09:25.469Z,13.80
2023-05-25T08:10:31.326Z,17.20
2023-05-25T08:11:36.655Z,16.90
2023-05-25T08:12:48.807Z,13.90
2023-05-25T08:13:44.660Z,15.30
2023-05-25T08:14:51.778Z,15.30
2023-05-25T08:15:54.193Z,15.40
2023-05-25T08:17:00.018Z,15.70
2023-05-25T08:18:05.446Z,16.60
2023-05-25T08:19:09.873Z,18.70
2023-05-25T08:20:16.609Z,17.40
2023-05-25T08:21:25.887Z,15.30
2023-05-25T08:22:29.079Z,14.80
2023-05-25T08:23:31.164Z,15.10
2023-05-25T08:24:33.271Z,15.56
2023-05-25T08:25:36.087Z,14.70
2023-05-25T08:26:53.790Z,15.70
2023-05-25T08:27:49.832Z,14.70
2023-05-25T08:28:53.223Z,14.70
2023-05-25T08:29:59.463Z,14.40
2023-05-25T08:31:02.320Z,11.90
2023-05-25T08:32:16.769Z,13.80
2023-05-25T08:33:20.826Z,14.10
2023-05-25T08:35:36.874Z,12.10
2023-05-25T08:36:40.022Z,12.60
2023-05-25T08:37:42.412Z,12.80
2023-05-25T08:38:45.484Z,13.60
2023-05-25T08:39:50.225Z,12.80
2023-05-25T08:41:05.716Z,15.70
2023-05-25T08:42:12.438Z,15.10
2023-05-25T08:43:14.836Z,14.00
2023-05-25T08:44:26.748Z,13.50
2023-05-25T08:45:35.662Z,12.90
2023-05-25T08:46:38.706Z,16.70
2023-05-25T08:47:46.655Z,15.80
2023-05-25T08:48:50.963Z,15.00
2023-05-25T08:49:59.275Z,10.50
2023-05-25T08:51:10.245Z,14.60
2023-05-25T08:52:22.453Z,14.70
2023-05-25T08:53:27.447Z,11.30
2023-05-25T08:54:33.308Z,10.50
2023-05-25T08:55:37.348Z,10.20
2023-05-25T08:58:17.321Z,8.10
2023-05-25T08:59:37.943Z,7.90
2023-05-25T09:00:46.450Z,6.80
2023-05-25T09:03:22.504Z,7.40
2023-05-25T09:04:27.788Z,5.50
2023-05-25T09:05:41.263Z,8.30
2023-05-25T09:06:39.204Z,6.90
2023-05-25T09:07:43.695Z,7.70
2023-05-25T09:08:49.415Z,6.40
2023-05-25T09:09:51.811Z,8.00
2023-05-25T09:10:58.653Z,10.70
2023-05-25T09:12:09.901Z,8.50
2023-05-25T09:13:22.072Z,8.60
2023-05-25T09:14:18.278Z,8.40
2023-05-25T09:15:21.337Z,8.30
2023-05-25T09:16:25.785Z,6.90
2023-05-25T09:17:29.933Z,8.50
2023-05-25T09:18:32.238Z,7.90
2023-05-25T09:19:35.609Z,8.00
2023-05-25T09:20:39.056Z,7.70
2023-05-25T09:21:42.213Z,9.40
2023-05-25T09:22:46.646Z,6.90
2023-05-25T09:23:49.976Z,9.00
2023-05-25T09:24:54.184Z,8.60
2023-05-25T09:25:57.990Z,8.00
2023-05-25T09:27:00.496Z,9.40
2023-05-25T09:28:13.701Z,8.80
2023-05-25T09:29:07.050Z,8.70
2023-05-25T09:30:12.125Z,8.64
2023-05-25T09:31:15.954Z,9.60
2023-05-25T09:32:18.989Z,10.00
2023-05-25T09:34:32.309Z,5.30
2023-05-25T09:35:38.685Z,9.50
2023-05-25T09:37:53.979Z,10.00
2023-05-25T09:38:57.286Z,9.40
2023-05-25T09:39:59.937Z,8.90
2023-05-25T09:41:03.656Z,8.40
2023-05-25T09:42:10.432Z,8.60
2023-05-25T09:43:17.193Z,8.20
2023-05-25T09:44:16.953Z,9.10
2023-05-25T09:45:19.396Z,9.60
2023-05-25T09:46:23.631Z,9.40
2023-05-25T09:47:28.035Z,8.40
2023-05-25T09:48:33.437Z,11.40
2023-05-25T09:49:36.002Z,8.90
2023-05-25T09:50:38.302Z,10.00
2023-05-25T09:51:40.712Z,9.00
2023-05-25T09:53:56.244Z,9.80
2023-05-25T09:55:00.405Z,8.40
2023-05-25T09:56:05.329Z,6.50
2023-05-25T09:57:07.786Z,6.90
2023-05-25T09:58:10.608Z,9.10
2023-05-25T09:59:12.892Z,8.09
2023-05-25T10:00:17.297Z,8.45
2023-05-25T10:01:19.816Z,7.00
2023-05-25T10:02:23.089Z,7.50
2023-05-25T10:03:25.546Z,7.40
2023-05-25T10:04:27.885Z,8.20
2023-05-25T10:05:30.262Z,8.30
2023-05-25T10:06:33.639Z,7.80
2023-05-25T10:07:39.465Z,9.90
2023-05-25T10:08:43.626Z,8.10
2023-05-25T10:09:46.558Z,5.70
2023-05-25T10:10:50.294Z,7.70
2023-05-25T10:11:54.826Z,8.30
2023-05-25T10:12:57.344Z,3.10
2023-05-25T10:14:00.622Z,8.40
2023-05-25T10:15:04.163Z,6.30
2023-05-25T10:16:09.075Z,6.90
2023-05-25T10:17:13.331Z,8.90
2023-05-25T10:18:16.870Z,8.80
2023-05-25T10:20:38.906Z,9.60
2023-05-25T10:21:43.068Z,8.10
2023-05-25T10:22:57.997Z,8.00
2023-05-25T10:25:38.292Z,8.20
2023-05-25T10:26:43.615Z,6.90
2023-05-25T10:29:04.490Z,6.00
2023-05-25T10:30:09.020Z,7.10
2023-05-25T10:31:12.011Z,7.60
2023-05-25T10:32:16.657Z,6.82
2023-05-25T10:33:21.245Z,8.40
2023-05-25T10:34:23.717Z,7.00
2023-05-25T10:35:27.881Z,5.10
2023-05-25T10:36:31.964Z,5.60
2023-05-25T10:37:34.819Z,5.90
2023-05-25T10:38:40.182Z,6.60
2023-05-25T10:39:42.507Z,6.60
2023-05-25T10:40:54.585Z,6.40
2023-05-25T10:41:56.837Z,6.40
2023-05-25T10:43:01.109Z,5.80
2023-05-25T10:44:03.808Z,7.10
2023-05-25T10:45:08.027Z,5.20
2023-05-25T10:46:10.965Z,6.10
2023-05-25T10:47:15.616Z,6.70
2023-05-25T10:48:18.271Z,8.80
2023-05-25T10:49:27.887Z,5.60
2023-05-25T10:50:34.097Z,4.80
2023-05-25T10:51:40.619Z,6.50
2023-05-25T10:52:42.984Z,7.40
2023-05-25T10:53:47.298Z,5.20
2023-05-25T10:54:49.566Z,5.90
2023-05-25T10:57:11.849Z,6.80
2023-05-25T10:58:17.195Z,8.30
2023-05-25T10:59:27.372Z,8.00
2023-05-25T11:00:31.962Z,8.70
2023-05-25T11:01:38.009Z,5.50
2023-05-25T11:02:51.501Z,7.80
2023-05-25T11:03:59.461Z,6.50
2023-05-25T11:05:28.467Z,6.70
2023-05-25T11:06:42.718Z,4.40
2023-05-25T11:08:04.120Z,7.50
2023-05-25T11:09:07.655Z,6.30
2023-05-25T11:10:12.597Z,7.80
2023-05-25T11:11:17.016Z,7.40
2023-05-25T11:12:22.276Z,6.30
2023-05-25T11:13:41.461Z,6.70
2023-05-25T11:14:44.128Z,7.10
2023-05-25T11:15:48.153Z,8.50
2023-05-25T11:17:12.041Z,7.60
2023-05-25T11:29:51.710Z,8.20
2023-05-25T11:30:54.652Z,7.50
2023-05-25T11:31:57.592Z,7.73
2023-05-25T11:34:12.827Z,7.20
2023-05-25T11:35:15.612Z,8.82
2023-05-25T11:36:18.868Z,7.40
2023-05-25T11:37:23.543Z,7.00
2023-05-25T11:38:25.770Z,7.70
2023-05-25T11:39:31.529Z,6.90
2023-05-25T11:40:36.387Z,8.50
2023-05-25T11:41:45.970Z,9.20
2023-05-25T11:42:49.980Z,8.00
2023-05-25T11:43:53.386Z,8.20
2023-05-25T11:44:56.041Z,9.40
2023-05-25T11:45:58.401Z,8.50
2023-05-25T11:47:03.492Z,8.30
2023-05-25T11:48:06.037Z,8.40
2023-05-25T11:49:08.432Z,7.30
2023-05-25T11:50:16.030Z,7.55
2023-05-25T11:51:23.601Z,9.50
2023-05-25T11:52:27.253Z,9.10
2023-05-25T11:53:30.297Z,9.30
2023-05-25T11:54:33.637Z,9.60
2023-05-25T11:55:36.950Z,7.70
2023-05-25T11:56:39.967Z,7.50
2023-05-25T11:57:42.342Z,9.00
2023-05-25T11:59:56.638Z,10.20
2023-05-25T12:01:15.147Z,9.00
2023-05-25T12:02:22.993Z,10.50
2023-05-25T12:03:30.728Z,11.60
2023-05-25T12:04:33.647Z,6.90
2023-05-25T12:05:40.463Z,10.27
2023-05-25T12:06:43.024Z,8.70
2023-05-25T12:07:46.743Z,10.70
2023-05-25T12:08:51.587Z,9.20
2023-05-25T12:10:08.833Z,8.82
2023-05-25T12:11:11.176Z,6.10
2023-05-25T12:12:14.241Z,13.60
2023-05-25T12:13:16.561Z,7.82
2023-05-25T12:14:18.914Z,11.00
2023-05-25T12:15:23.049Z,11.80
2023-05-25T12:16:27.248Z,10.20
2023-05-25T12:17:30.140Z,11.60
2023-05-25T12:18:33.470Z,14.10
2023-05-25T12:19:36.770Z,12.10
2023-05-25T12:20:39.933Z,14.30
2023-05-25T12:21:42.788Z,12.40
2023-05-25T12:22:46.836Z,13.60
2023-05-25T12:23:50.284Z,11.40
2023-05-25T12:24:52.818Z,10.70
2023-05-25T12:26:12.170Z,10.10
2023-05-25T12:27:19.474Z,11.80
2023-05-25T12:28:22.044Z,9.00
2023-05-25T12:29:24.729Z,11.30
2023-05-25T12:30:29.879Z,12.82
2023-05-25T12:33:03.833Z,11.00
2023-05-25T12:34:15.905Z,10.40
2023-05-25T12:35:18.668Z,8.10
2023-05-25T12:36:55.084Z,11.40
2023-05-25T12:38:21.585Z,11.50
2023-05-25T12:39:35.075Z,9.50
2023-05-25T12:40:38.105Z,9.60
2023-05-25T12:41:49.432Z,11.20
2023-05-25T12:42:57.026Z,11.10
2023-05-25T12:43:59.633Z,10.40
2023-05-25T12:45:01.904Z,10.60
2023-05-25T12:46:05.225Z,10.00
2023-05-25T12:47:21.444Z,11.50
2023-05-25T12:48:28.053Z,11.90
2023-05-25T12:49:33.798Z,9.60
2023-05-25T12:50:37.281Z,10.60
2023-05-25T12:51:40.412Z,8.90
2023-05-25T12:52:44.287Z,11.64
2023-05-25T12:53:52.260Z,10.90
2023-05-25T12:56:23.144Z,12.10
2023-05-25T12:57:29.032Z,11.50
2023-05-25T12:58:31.476Z,11.20
2023-05-25T12:59:38.060Z,9.60
2023-05-25T13:00:40.439Z,10.60
2023-05-25T13:01:43.825Z,11.00
2023-05-25T13:02:47.886Z,13.50
2023-05-25T13:03:50.322Z,10.70
2023-05-25T13:04:52.535Z,11.50
2023-05-25T13:07:08.731Z,10.70
2023-05-25T13:08:11.466Z,10.09
2023-05-25T13:09:13.963Z,9.73
2023-05-25T13:10:17.847Z,10.40
2023-05-25T13:11:20.359Z,10.70
2023-05-25T13:12:22.981Z,8.90
2023-05-25T13:13:25.099Z,8.90
2023-05-25T13:14:28.104Z,11.30
2023-05-25T13:15:30.414Z,9.45
2023-05-25T13:17:57.000Z,9.90
2023-05-25T13:19:02.593Z,9.10
2023-05-25T13:20:06.630Z,7.50
2023-05-25T13:21:08.981Z,9.90
2023-05-25T13:22:11.679Z,9.20
2023-05-25T13:23:18.207Z,9.60
2023-05-25T13:24:21.801Z,9.70
2023-05-25T13:25:24.594Z,9.10
2023-05-25T13:26:27.106Z,10.40
2023-05-25T13:27:29.232Z,9.30
2023-05-25T13:28:31.359Z,9.70
2023-05-25T13:29:33.470Z,10.00
2023-05-25T13:30:35.783Z,10.00
2023-05-25T13:31:38.156Z,10.00
2023-05-25T13:32:41.053Z,8.60
2023-05-25T13:33:43.403Z,9.60
2023-05-25T13:34:45.597Z,9.50
2023-05-25T13:35:48.691Z,10.60
2023-05-25T13:36:51.245Z,8.40
2023-05-25T13:37:53.944Z,8.90
2023-05-25T13:38:56.455Z,8.09
2023-05-25T13:39:58.955Z,8.90
2023-05-25T13:41:02.363Z,10.50
2023-05-25T13:42:07.072Z,8.90
2023-05-25T13:43:09.347Z,7.60
2023-05-25T13:44:12.232Z,9.60
2023-05-25T13:45:14.976Z,9.70
2023-05-25T13:46:32.858Z,8.60
2023-05-25T13:47:22.128Z,9.60
2023-05-25T13:48:25.578Z,9.80
2023-05-25T13:49:28.004Z,10.60
2023-05-25T13:50:32.264Z,8.70
2023-05-25T13:51:34.660Z,7.70
2023-05-25T13:52:40.090Z,9.40
2023-05-25T13:54:59.851Z,10.30
2023-05-25T13:56:02.252Z,8.60
2023-05-25T13:57:05.793Z,7.80
2023-05-25T13:58:09.726Z,8.50
2023-05-25T13:59:12.122Z,9.30
2023-05-25T14:00:16.175Z,5.10
2023-05-25T14:01:18.714Z,7.10
2023-05-25T14:02:22.031Z,8.70
2023-05-25T14:03:25.177Z,8.80
2023-05-25T14:04:27.625Z,7.27
2023-05-25T14:05:29.682Z,8.60
2023-05-25T14:06:32.945Z,8.40
2023-05-25T14:07:35.299Z,9.50
2023-05-25T14:08:38.156Z,8.70
2023-05-25T14:09:40.166Z,7.00
2023-05-25T14:10:42.552Z,7.10
2023-05-25T14:11:44.914Z,9.00
2023-05-25T14:12:48.152Z,6.90
2023-05-25T14:13:51.018Z,7.30
2023-05-25T14:14:53.312Z,9.40
2023-05-25T14:15:56.270Z,8.00
2023-05-25T14:16:59.889Z,7.10
2023-05-25T14:18:02.977Z,9.80
2023-05-25T14:19:06.323Z,9.70
2023-05-25T14:20:09.718Z,8.70
2023-05-25T14:21:12.093Z,7.36
2023-05-25T14:22:15.532Z,8.00
2023-05-25T14:23:18.644Z,6.60
2023-05-25T14:24:22.459Z,6.50
2023-05-25T14:25:24.810Z,8.90
2023-05-25T14:26:27.701Z,10.00
2023-05-25T14:27:30.047Z,7.30
2023-05-25T14:28:32.180Z,7.40
2023-05-25T14:29:34.458Z,10.00
2023-05-25T14:30:37.294Z,7.90
2023-05-25T14:31:40.009Z,8.90
2023-05-25T14:32:42.725Z,8.50
2023-05-25T14:33:46.027Z,6.10
2023-05-25T14:34:48.341Z,7.40
2023-05-25T14:35:51.091Z,7.60
2023-05-25T14:36:53.889Z,8.50
2023-05-25T14:37:58.465Z,7.00
2023-05-25T14:39:00.760Z,7.30
2023-05-25T14:40:04.541Z,6.40
2023-05-25T14:41:07.095Z,7.90
2023-05-25T14:42:09.371Z,7.20
2023-05-25T14:43:12.162Z,7.80
2023-05-25T14:44:15.563Z,6.80
2023-05-25T14:45:17.828Z,7.10
2023-05-25T14:46:20.359Z,6.20
2023-05-25T14:47:22.723Z,7.20